Whittier, AK (99693)

7:03 PM AKDT on August 29, 2016 (GMT -0800)
AKDOT | | Change Station

Elev 101 ft 60.78 °N, 148.73 °W | Updated 43 minutes ago

Clear
Clear
68 °F
Feels Like 68 °F
N
4
Wind Variable Wind from NW
Gusts 7.0 mph

Today
High -- | Low -- °F
--% Chance of Precip.
Yesterday
High -- | Low -- °F
Precip. -- in
Pressure 29.96 in
Visibility 10.0 miles
Clouds Clear
Dew Point 47 °F
Humidity 47%
Rainfall in
Snow Depth Not available.
6:41 AM 9:06 PM
Waning Crescent, 5% visible
METAR PATO 300253Z AUTO 08004KT 10SM CLR 14/04 A2996 RMK AO2 SLP146 T01440044 51005 TSNO $
Pressure 29.96 in
Visibility 10.0 miles
Clouds Clear
Dew Point 47 °F
Humidity 47%
Rainfall in
Snow Depth Not available.
6:41 AM 9:06 PM
Waning Crescent, 5% visible
METAR PATO 300253Z AUTO 08004KT 10SM CLR 14/04 A2996 RMK AO2 SLP146 T01440044 51005 TSNO $

10-Day Weather Forecast

Almanac

Astronomy

Aug. 29, 2016 Rise Set
Actual Time
Civil Twilight
Nautical Twilight
Astronomical Twilight
Moon
Length of Visible Light
Length of Day
Tomorrow will be .
, % of the Moon is Illuminated

Today's Extremes

State Highs State Lows

Community

WunderPhotos

Upload Photos

1,935,752 photos uploaded!

WunderBlog® & News

Nearby

Air Quality

  Air Quality AQ Index Pollutant
Not available.

Snow Depth

Station Depth Elevation

Earthquake Activity

City Distance Mag. Time & Date
Minimum magnitude displayed is 2.5.

Coastal Water Temperatures

Place Temperature

Stations

Nearby Weather Stations

Station Location Temp. Windchill Dew Point Humidity Wind Precip. Elev Updated Type
                   

Watches & Warnings

There are currently no watches in effect.